Pocahontas, TN (38061)

4:44 AM CDT on April 27, 2017 (GMT -0500)
Second Eden | | Change Station

Elev 564 ft 35.03 °N, 88.96 °W | Updated 15 seconds ago

Overcast
Overcast
57.0 °F
Feels Like 57.0 °F
N
0.0
Wind Variable Wind from SSW
Gusts 0.0 mph

Today
High -- | Low -- °F
--% Chance of Precip.
Yesterday
High -- | Low -- °F
Precip. -- in
Pressure 29.64 in
Visibility 10.0 miles
Clouds Mostly Cloudy 2700 ft
Mostly Cloudy 3300 ft
Mostly Cloudy 4800 ft
Dew Point 57 °F
Humidity 99%
Rainfall 0.04 in
Snow Depth Not available.
6:08 AM 7:37 PM
New Moon, 1% visible
METAR KCRX 270935Z AUTO 20008KT 10SM BKN027 BKN033 BKN048 17/16 A2964 RMK AO2
Pressure 29.64 in
Visibility 10.0 miles
Clouds Mostly Cloudy 2700 ft
Mostly Cloudy 3300 ft
Mostly Cloudy 4800 ft
Dew Point 57 °F
Humidity 99%
Rainfall 0.04 in
Snow Depth Not available.
6:08 AM 7:37 PM
New Moon, 1% visible
METAR KCRX 270935Z AUTO 20008KT 10SM BKN027 BKN033 BKN048 17/16 A2964 RMK AO2

Get Severe Weather Alerts

Thanks for signing up!

Be on the lookout for a verification email in your inbox.

You'll start receiving the daily forecast at 8 AM.

×

10-Day Weather Forecast

Almanac

Astronomy

Apr. 27, 2017 Rise Set
Actual Time
Civil Twilight
Nautical Twilight
Astronomical Twilight
Moon
Length of Visible Light
Length of Day
Tomorrow will be .
, % of the Moon is Illuminated

Today's Extremes

State Highs State Lows

Community

WunderPhotos

WunderBlog® & News

Nearby

Air Quality

  Air Quality AQ Index Pollutant
Not available.

Snow Depth

Station Depth Elevation

Earthquake Activity

City Distance Mag. Time & Date
Minimum magnitude displayed is 2.5.

Coastal Water Temperatures

Place Temperature

Stations

Nearby Weather Stations

Station Location Temp. Windchill Dew Point Humidity Wind Precip. Elev Updated Type
                   

Watches & Warnings

There are currently no watches in effect.